createdAt,value
2019-04-07T00:01:10.592Z,8.19
2019-04-07T00:03:38.112Z,8.11
2019-04-07T00:06:05.551Z,8.16
2019-04-07T00:08:32.980Z,8.13
2019-04-07T00:11:00.487Z,8.09
2019-04-07T00:13:28.202Z,8.03
2019-04-07T00:15:55.786Z,7.95
2019-04-07T00:18:24.203Z,7.89
2019-04-07T00:20:51.632Z,7.91
2019-04-07T00:23:19.032Z,7.90
2019-04-07T00:25:46.768Z,7.83
2019-04-07T00:28:14.378Z,7.82
2019-04-07T00:30:42.409Z,7.79
2019-04-07T00:33:10.117Z,7.77
2019-04-07T00:35:37.650Z,7.81
2019-04-07T00:38:05.137Z,7.73
2019-04-07T00:40:32.512Z,7.70
2019-04-07T00:42:59.953Z,7.65
2019-04-07T00:45:27.354Z,7.54
2019-04-07T00:47:54.797Z,7.56
2019-04-07T00:50:22.264Z,7.57
2019-04-07T00:52:50.203Z,7.52
2019-04-07T00:55:17.720Z,7.56
2019-04-07T00:57:45.631Z,7.47
2019-04-07T01:00:16.497Z,7.44
2019-04-07T01:02:44.038Z,7.45
2019-04-07T01:05:11.659Z,7.41
2019-04-07T01:07:41.026Z,7.40
2019-04-07T01:10:08.733Z,7.39
2019-04-07T01:12:36.941Z,7.36
2019-04-07T01:15:07.857Z,7.32
2019-04-07T01:17:35.367Z,7.27
2019-04-07T01:20:04.387Z,7.28
2019-04-07T01:22:31.922Z,7.25
2019-04-07T01:24:59.465Z,7.23
2019-04-07T01:27:27.072Z,7.20
2019-04-07T01:29:54.484Z,7.23
2019-04-07T01:32:22.465Z,7.17
2019-04-07T01:34:50.347Z,7.12
2019-04-07T01:37:17.953Z,7.03
2019-04-07T01:39:45.833Z,6.96
2019-04-07T01:42:22.921Z,6.91
2019-04-07T01:45:12.743Z,6.91
2019-04-07T01:47:55.192Z,6.89
2019-04-07T01:50:41.775Z,6.92
2019-04-07T01:53:25.416Z,6.94
2019-04-07T01:56:05.438Z,6.82
2019-04-07T01:58:56.116Z,6.64
2019-04-07T02:01:43.904Z,6.54
2019-04-07T02:04:29.417Z,6.62
2019-04-07T02:07:16.382Z,6.56
2019-04-07T02:10:02.542Z,6.63
2019-04-07T02:12:53.160Z,6.80
2019-04-07T02:15:35.878Z,6.75
2019-04-07T02:18:25.748Z,6.77
2019-04-07T02:21:03.417Z,6.66
2019-04-07T02:24:00.039Z,6.58
2019-04-07T02:26:36.975Z,6.54
2019-04-07T02:29:24.628Z,6.57
2019-04-07T02:32:05.462Z,6.49
2019-04-07T02:34:43.944Z,6.38
2019-04-07T02:37:31.331Z,6.32
2019-04-07T02:40:31.174Z,6.26
2019-04-07T02:43:31.058Z,6.23
2019-04-07T02:46:31.286Z,6.19
2019-04-07T02:49:21.157Z,6.21
2019-04-07T02:52:16.867Z,6.22
2019-04-07T02:55:04.503Z,6.30
2019-04-07T02:57:44.541Z,6.28
2019-04-07T03:00:44.483Z,6.25
2019-04-07T03:03:31.118Z,6.19
2019-04-07T03:06:37.475Z,6.12
2019-04-07T03:08:59.738Z,6.13
2019-04-07T03:11:56.414Z,6.12
2019-04-07T03:14:50.617Z,6.06
2019-04-07T03:17:52.674Z,6.04
2019-04-07T03:20:26.952Z,6.05
2019-04-07T03:23:14.712Z,5.99
2019-04-07T03:25:55.008Z,5.90
2019-04-07T03:28:35.220Z,5.85
2019-04-07T03:31:22.435Z,5.82
2019-04-07T03:34:14.515Z,5.79
2019-04-07T03:37:19.084Z,5.80
2019-04-07T03:39:49.845Z,5.81
2019-04-07T03:42:38.459Z,5.84
2019-04-07T03:45:28.677Z,5.83
2019-04-07T03:48:06.901Z,5.72
2019-04-07T03:50:40.919Z,5.71
2019-04-07T03:53:27.118Z,5.67
2019-04-07T03:56:17.062Z,5.67
2019-04-07T03:58:53.828Z,5.64
2019-04-07T04:01:41.459Z,5.58
2019-04-07T04:04:31.476Z,5.60
2019-04-07T04:07:26.590Z,5.58
2019-04-07T04:10:17.807Z,5.61
2019-04-07T04:13:05.151Z,5.66
2019-04-07T04:15:41.553Z,5.58
2019-04-07T04:18:09.587Z,5.50
2019-04-07T04:20:37.355Z,5.43
2019-04-07T04:23:05.838Z,5.32
2019-04-07T04:25:34.094Z,5.28
2019-04-07T04:28:01.700Z,5.32
2019-04-07T04:30:29.921Z,5.31
2019-04-07T04:32:57.477Z,5.21
2019-04-07T04:35:24.902Z,5.27
2019-04-07T04:37:53.925Z,5.24
2019-04-07T04:40:22.232Z,5.29
2019-04-07T04:42:50.417Z,5.28
2019-04-07T04:45:18.029Z,5.38
2019-04-07T04:47:46.340Z,5.21
2019-04-07T04:50:14.801Z,5.27
2019-04-07T04:52:42.807Z,5.29
2019-04-07T04:55:11.236Z,5.35
2019-04-07T04:57:38.828Z,5.33
2019-04-07T05:00:06.441Z,5.22
2019-04-07T05:02:33.873Z,5.24
2019-04-07T05:05:02.454Z,5.29
2019-04-07T05:07:30.190Z,5.32
2019-04-07T05:09:57.728Z,5.42
2019-04-07T05:12:25.217Z,5.51
2019-04-07T05:14:53.644Z,5.70
2019-04-07T05:17:21.092Z,5.91
2019-04-07T05:19:48.481Z,6.11
2019-04-07T05:22:16.708Z,6.36
2019-04-07T05:24:44.312Z,6.41
2019-04-07T05:27:11.694Z,6.67
2019-04-07T05:29:39.134Z,6.94
2019-04-07T05:32:06.882Z,6.84
2019-04-07T05:34:34.583Z,6.80
2019-04-07T05:37:02.194Z,7.04
2019-04-07T05:39:29.827Z,7.04
2019-04-07T05:41:57.200Z,7.20
2019-04-07T05:44:24.837Z,7.43
2019-04-07T05:46:52.824Z,7.72
2019-04-07T05:49:22.578Z,7.92
2019-04-07T05:51:50.111Z,7.83
2019-04-07T05:54:19.783Z,7.74
2019-04-07T05:56:47.013Z,8.02
2019-04-07T05:59:14.775Z,8.45
2019-04-07T06:01:43.053Z,8.98
2019-04-07T06:04:14.325Z,9.30
2019-04-07T06:06:41.763Z,9.54
2019-04-07T06:09:09.465Z,9.92
2019-04-07T06:11:38.911Z,9.99
2019-04-07T06:14:06.316Z,10.48
2019-04-07T06:16:34.364Z,10.73
2019-04-07T06:19:06.463Z,11.00
2019-04-07T06:21:31.266Z,11.46
2019-04-07T06:24:00.625Z,11.37
2019-04-07T06:26:28.105Z,11.53
2019-04-07T06:28:58.500Z,12.24
2019-04-07T06:31:26.305Z,12.75
2019-04-07T06:33:55.074Z,12.82
2019-04-07T06:36:25.461Z,13.48
2019-04-07T06:38:52.916Z,13.16
2019-04-07T06:41:21.762Z,13.43
2019-04-07T06:43:49.663Z,14.16
2019-04-07T06:46:39.301Z,14.22
2019-04-07T06:49:15.315Z,14.18
2019-04-07T06:52:03.599Z,14.32
2019-04-07T06:54:50.122Z,14.03
2019-04-07T06:57:37.731Z,14.53
2019-04-07T07:00:25.675Z,14.67
2019-04-07T07:03:11.686Z,15.40
2019-04-07T07:06:11.103Z,15.54
2019-04-07T07:08:46.799Z,16.27
2019-04-07T07:11:40.396Z,16.07
2019-04-07T07:14:30.342Z,16.55
2019-04-07T07:17:04.053Z,16.37
2019-04-07T07:19:41.206Z,17.24
2019-04-07T07:22:14.818Z,17.44
2019-04-07T07:24:41.721Z,18.11
2019-04-07T07:27:11.274Z,17.56
2019-04-07T07:29:38.715Z,17.98
2019-04-07T07:32:06.461Z,18.07
2019-04-07T07:34:35.856Z,18.19
2019-04-07T07:37:04.054Z,18.30
2019-04-07T07:39:31.614Z,18.86
2019-04-07T07:41:59.371Z,19.58
2019-04-07T07:44:27.734Z,19.18
2019-04-07T07:46:55.528Z,19.18
2019-04-07T07:49:22.946Z,19.53
2019-04-07T07:51:50.630Z,19.36
2019-04-07T07:54:18.278Z,19.48
2019-04-07T07:56:48.536Z,19.44
2019-04-07T07:59:15.142Z,19.18
2019-04-07T08:01:46.235Z,19.81
2019-04-07T08:04:12.006Z,20.56
2019-04-07T08:06:41.047Z,20.30
2019-04-07T08:09:13.738Z,20.88
2019-04-07T08:11:38.931Z,20.38
2019-04-07T08:14:06.732Z,19.18
2019-04-07T08:16:34.647Z,20.43
2019-04-07T08:19:03.873Z,21.11
2019-04-07T08:21:31.642Z,21.23
2019-04-07T08:23:59.100Z,20.54
2019-04-07T08:26:26.596Z,18.76
2019-04-07T08:28:54.751Z,18.76
2019-04-07T08:31:22.950Z,20.12
2019-04-07T08:33:51.599Z,18.93
2019-04-07T08:36:19.800Z,19.35
2019-04-07T08:38:47.721Z,19.68
2019-04-07T08:41:16.663Z,20.18
2019-04-07T08:43:44.247Z,19.14
2019-04-07T08:46:12.026Z,20.15
2019-04-07T08:48:40.182Z,20.30
2019-04-07T08:51:08.508Z,20.36
2019-04-07T08:53:36.097Z,19.90
2019-04-07T08:56:06.364Z,20.54
2019-04-07T08:58:36.893Z,20.67
2019-04-07T09:01:03.312Z,21.34
2019-04-07T09:03:31.450Z,20.80
2019-04-07T09:05:59.797Z,20.86
2019-04-07T09:08:27.335Z,21.35
2019-04-07T09:11:09.058Z,20.82
2019-04-07T09:13:37.197Z,20.93
2019-04-07T09:16:41.578Z,20.74
2019-04-07T09:19:27.265Z,19.85
2019-04-07T09:22:14.317Z,20.96
2019-04-07T09:25:10.887Z,20.61
2019-04-07T09:27:52.269Z,20.61
2019-04-07T09:31:00.289Z,20.87
2019-04-07T09:33:48.141Z,19.94
2019-04-07T09:36:51.111Z,19.83
2019-04-07T09:39:55.389Z,19.43
2019-04-07T09:42:42.052Z,19.71
2019-04-07T09:45:30.132Z,19.25
2019-04-07T09:48:19.167Z,19.30
2019-04-07T09:51:20.826Z,19.11
2019-04-07T09:54:11.019Z,19.04
2019-04-07T09:57:19.067Z,18.86
2019-04-07T09:59:55.687Z,18.97
2019-04-07T10:02:42.682Z,18.99
2019-04-07T10:05:30.986Z,18.54
2019-04-07T10:08:20.918Z,18.74
2019-04-07T10:11:19.780Z,18.83
2019-04-07T10:14:10.017Z,18.54
2019-04-07T10:16:53.032Z,18.56
2019-04-07T10:19:55.534Z,18.60
2019-04-07T10:22:46.164Z,18.68
2019-04-07T10:25:29.018Z,18.63
2019-04-07T10:28:07.214Z,18.52
2019-04-07T10:30:58.659Z,18.62
2019-04-07T10:33:46.089Z,18.63
2019-04-07T10:36:33.036Z,18.94
2019-04-07T10:39:39.160Z,18.55
2019-04-07T10:42:38.061Z,18.68
2019-04-07T10:45:26.184Z,18.66
2019-04-07T10:48:28.603Z,18.70
2019-04-07T10:51:10.519Z,18.83
2019-04-07T10:53:56.306Z,18.59
2019-04-07T10:56:48.374Z,18.80
2019-04-07T10:59:37.260Z,18.91
2019-04-07T11:02:13.467Z,19.15
2019-04-07T11:05:02.914Z,19.20
2019-04-07T11:07:43.847Z,19.28
2019-04-07T11:10:35.208Z,19.44
2019-04-07T11:13:49.994Z,19.35
2019-04-07T11:19:45.366Z,19.69
2019-04-07T11:22:44.188Z,19.61
2019-04-07T11:25:37.120Z,19.84
2019-04-07T11:28:39.007Z,19.44
2019-04-07T11:31:29.147Z,19.54
2019-04-07T11:34:22.718Z,19.32
2019-04-07T11:37:25.108Z,19.23
2019-04-07T11:40:24.881Z,19.35
2019-04-07T11:43:02.296Z,19.27
2019-04-07T11:45:53.243Z,19.27
2019-04-07T11:48:30.890Z,19.12
2019-04-07T11:54:41.468Z,19.06
2019-04-07T11:57:41.169Z,19.17
2019-04-07T12:01:12.814Z,18.82
2019-04-07T12:04:31.659Z,19.00
2019-04-07T12:07:30.533Z,19.33
2019-04-07T12:10:40.830Z,19.28
2019-04-07T12:13:34.884Z,19.11
2019-04-07T12:16:30.386Z,19.34
2019-04-07T12:19:56.840Z,19.34
2019-04-07T12:23:04.780Z,19.49
2019-04-07T12:26:05.916Z,19.40
2019-04-07T12:29:12.981Z,19.52
2019-04-07T12:32:04.003Z,19.58
2019-04-07T12:34:45.855Z,19.55
2019-04-07T12:37:30.591Z,19.27
2019-04-07T12:40:39.370Z,19.44
2019-04-07T12:43:07.333Z,19.48
2019-04-07T12:46:19.325Z,19.55
2019-04-07T12:49:16.408Z,18.95
2019-04-07T12:52:03.106Z,19.26
2019-04-07T12:55:19.289Z,19.23
2019-04-07T12:58:28.740Z,19.46
2019-04-07T13:01:19.713Z,19.46
2019-04-07T13:04:06.806Z,19.47
2019-04-07T13:07:01.331Z,19.41
2019-04-07T13:09:51.711Z,19.71
2019-04-07T13:12:46.634Z,19.54
2019-04-07T13:15:30.299Z,19.28
2019-04-07T13:18:19.372Z,19.18
2019-04-07T13:21:22.041Z,19.52
2019-04-07T13:24:50.908Z,19.60
2019-04-07T13:27:54.201Z,19.47
2019-04-07T13:30:41.517Z,19.20
2019-04-07T13:35:22.682Z,19.13
2019-04-07T13:40:21.756Z,19.27
2019-04-07T13:43:33.195Z,19.16
2019-04-07T13:46:43.314Z,19.10
2019-04-07T13:49:41.356Z,19.38
2019-04-07T13:52:41.524Z,19.38
2019-04-07T13:55:41.118Z,19.39
2019-04-07T14:03:00.235Z,19.42
2019-04-07T14:04:59.910Z,19.27
2019-04-07T14:08:52.996Z,19.16
2019-04-07T14:12:10.054Z,19.45
2019-04-07T14:18:17.442Z,19.22
2019-04-07T14:21:14.807Z,19.21
2019-04-07T14:24:14.414Z,19.24
2019-04-07T14:26:51.937Z,19.07
2019-04-07T14:29:46.041Z,18.91
2019-04-07T14:32:27.353Z,18.98
2019-04-07T14:35:18.418Z,19.23
2019-04-07T14:41:29.938Z,19.01
2019-04-07T14:44:16.052Z,18.91
2019-04-07T14:47:12.830Z,19.17
2019-04-07T14:50:50.425Z,19.10
2019-04-07T14:53:43.145Z,19.06
2019-04-07T14:56:50.833Z,19.01
2019-04-07T14:59:38.420Z,19.15
2019-04-07T15:02:10.559Z,19.04
2019-04-07T15:04:47.735Z,18.96
2019-04-07T15:07:34.562Z,19.04
2019-04-07T15:10:12.385Z,19.00
2019-04-07T15:12:55.625Z,18.99
2019-04-07T15:15:23.688Z,18.99
2019-04-07T15:18:16.499Z,19.02
2019-04-07T15:20:47.384Z,19.00
2019-04-07T15:23:31.909Z,19.06
2019-04-07T15:25:59.069Z,18.94
2019-04-07T15:28:31.422Z,18.95
2019-04-07T15:31:06.081Z,19.06
2019-04-07T15:33:39.566Z,19.00
2019-04-07T15:36:10.783Z,18.93
2019-04-07T15:38:41.435Z,18.80
2019-04-07T15:41:19.079Z,18.88
2019-04-07T15:43:48.880Z,18.87
2019-04-07T15:46:19.552Z,18.81
2019-04-07T15:49:07.895Z,18.83
2019-04-07T15:51:37.717Z,18.88
2019-04-07T15:56:59.960Z,18.84
2019-04-07T15:59:34.168Z,18.76
2019-04-07T16:02:13.480Z,18.69
2019-04-07T16:04:49.391Z,18.70
2019-04-07T16:07:59.292Z,18.70
2019-04-07T16:10:23.921Z,18.64
2019-04-07T16:12:59.419Z,18.66
2019-04-07T16:15:34.064Z,18.59
2019-04-07T16:18:04.771Z,18.56
2019-04-07T16:20:37.254Z,18.52
2019-04-07T16:23:05.883Z,18.45
2019-04-07T16:25:40.217Z,18.47
2019-04-07T16:28:11.378Z,18.38
2019-04-07T16:30:39.449Z,18.40
2019-04-07T16:33:07.739Z,18.36
2019-04-07T16:35:36.523Z,18.32
2019-04-07T16:38:05.273Z,18.31
2019-04-07T16:40:33.905Z,18.28
2019-04-07T16:43:11.531Z,18.27
2019-04-07T16:45:33.953Z,18.22
2019-04-07T16:48:04.504Z,18.19
2019-04-07T16:50:31.963Z,18.10
2019-04-07T16:53:06.552Z,18.03
2019-04-07T16:55:39.963Z,18.03
2019-04-07T16:58:17.757Z,17.99
2019-04-07T17:00:49.696Z,17.92
2019-04-07T17:03:24.053Z,17.85
2019-04-07T17:05:57.528Z,17.82
2019-04-07T17:08:24.970Z,17.80
2019-04-07T17:10:54.477Z,17.67
2019-04-07T17:13:34.504Z,17.62
2019-04-07T17:15:54.079Z,17.56
2019-04-07T17:18:36.856Z,17.55
2019-04-07T17:21:10.317Z,17.52
2019-04-07T17:23:39.614Z,17.48
2019-04-07T17:26:11.640Z,17.32
2019-04-07T17:28:44.434Z,17.30
2019-04-07T17:31:11.871Z,17.29
2019-04-07T17:33:39.942Z,17.24
2019-04-07T17:36:07.979Z,17.15
2019-04-07T17:38:51.942Z,17.01
2019-04-07T17:41:20.184Z,16.97
2019-04-07T17:44:22.401Z,16.90
2019-04-07T17:47:00.568Z,16.88
2019-04-07T17:49:59.227Z,16.80
2019-04-07T17:53:14.028Z,16.65
2019-04-07T17:55:58.958Z,16.63
2019-04-07T17:58:44.221Z,16.65
2019-04-07T18:01:36.047Z,16.56
2019-04-07T18:04:29.227Z,16.51
2019-04-07T18:07:15.083Z,16.49
2019-04-07T18:10:06.907Z,16.46
2019-04-07T18:12:51.558Z,16.38
2019-04-07T18:15:42.073Z,16.30
2019-04-07T18:18:28.263Z,16.22
2019-04-07T18:21:16.863Z,16.16
2019-04-07T18:24:06.445Z,16.11
2019-04-07T18:27:01.632Z,16.08
2019-04-07T18:29:46.028Z,16.02
2019-04-07T18:32:27.762Z,15.96
2019-04-07T18:35:23.882Z,15.91
2019-04-07T18:41:16.712Z,15.80
2019-04-07T18:44:06.956Z,15.71
2019-04-07T18:46:50.160Z,15.67
2019-04-07T18:49:35.493Z,15.62
2019-04-07T18:52:27.689Z,15.56
2019-04-07T18:55:13.978Z,15.46
2019-04-07T18:57:50.864Z,15.34
2019-04-07T19:00:39.215Z,15.25
2019-04-07T19:03:29.946Z,15.21
2019-04-07T19:06:20.397Z,15.14
2019-04-07T19:09:10.101Z,15.09
2019-04-07T19:12:07.560Z,15.03
2019-04-07T19:14:47.283Z,14.94
2019-04-07T19:17:34.904Z,14.76
2019-04-07T19:20:22.880Z,14.55
2019-04-07T19:23:16.442Z,14.55
2019-04-07T19:26:16.423Z,14.51
2019-04-07T19:28:56.329Z,14.45
2019-04-07T19:31:39.748Z,14.29
2019-04-07T19:34:43.178Z,14.19
2019-04-07T19:37:34.717Z,14.07
2019-04-07T19:40:10.067Z,13.80
2019-04-07T19:43:05.826Z,13.69
2019-04-07T19:45:55.265Z,13.55
2019-04-07T19:48:57.707Z,13.41
2019-04-07T19:52:03.287Z,13.49
2019-04-07T19:55:01.595Z,13.33
2019-04-07T19:57:50.992Z,13.15
2019-04-07T20:00:37.240Z,12.97
2019-04-07T20:03:24.177Z,12.91
2019-04-07T20:06:12.889Z,12.88
2019-04-07T20:08:57.854Z,12.79
2019-04-07T20:11:48.272Z,12.65
2019-04-07T20:14:45.108Z,12.62
2019-04-07T20:17:21.070Z,12.56
2019-04-07T20:20:04.215Z,12.58
2019-04-07T20:22:44.508Z,12.47
2019-04-07T20:25:25.157Z,12.43
2019-04-07T20:28:09.758Z,12.40
2019-04-07T20:30:48.576Z,12.36
2019-04-07T20:33:38.057Z,12.31
2019-04-07T20:36:40.778Z,12.30
2019-04-07T20:39:21.680Z,12.30
2019-04-07T20:42:18.008Z,12.31
2019-04-07T20:45:03.436Z,12.25
2019-04-07T20:47:34.983Z,12.17
2019-04-07T20:50:14.286Z,12.09
2019-04-07T20:52:49.198Z,12.03
2019-04-07T20:55:37.445Z,11.87
2019-04-07T20:58:41.621Z,11.82
2019-04-07T21:01:21.204Z,11.81
2019-04-07T21:04:12.863Z,11.81
2019-04-07T21:07:05.971Z,11.60
2019-04-07T21:09:51.673Z,11.57
2019-04-07T21:12:45.451Z,11.47
2019-04-07T21:15:43.167Z,11.40
2019-04-07T21:18:24.033Z,11.36
2019-04-07T21:21:02.732Z,11.24
2019-04-07T21:23:49.816Z,11.25
2019-04-07T21:26:37.151Z,11.25
2019-04-07T21:29:14.878Z,11.23
2019-04-07T21:32:01.757Z,11.08
2019-04-07T21:34:44.982Z,11.04
2019-04-07T21:37:26.149Z,10.95
2019-04-07T21:40:14.356Z,10.86
2019-04-07T21:43:00.516Z,10.73
2019-04-07T21:45:50.404Z,10.69
2019-04-07T21:48:47.467Z,10.69
2019-04-07T21:51:41.034Z,10.68
2019-04-07T21:54:16.015Z,10.65
2019-04-07T21:57:02.332Z,10.59
2019-04-07T21:59:36.306Z,10.55
2019-04-07T22:02:15.608Z,10.48
2019-04-07T22:05:07.579Z,10.37
2019-04-07T22:07:43.985Z,10.40
2019-04-07T22:10:13.680Z,10.49
2019-04-07T22:12:42.326Z,10.59
2019-04-07T22:15:13.968Z,10.66
2019-04-07T22:17:41.001Z,10.67
2019-04-07T22:20:09.046Z,10.54
2019-04-07T22:22:37.612Z,10.44
2019-04-07T22:25:07.110Z,10.24
2019-04-07T22:27:35.443Z,10.34
2019-04-07T22:30:06.572Z,10.35
2019-04-07T22:32:35.285Z,10.36
2019-04-07T22:35:06.575Z,10.14
2019-04-07T22:37:34.518Z,10.15
2019-04-07T22:40:03.454Z,10.12
2019-04-07T22:42:31.266Z,10.05
2019-04-07T22:44:59.862Z,9.97
2019-04-07T22:47:27.938Z,9.93
2019-04-07T22:49:56.888Z,9.82
2019-04-07T22:52:24.782Z,9.85
2019-04-07T22:54:52.621Z,9.80
2019-04-07T22:57:20.223Z,9.74
2019-04-07T22:59:48.306Z,9.59
2019-04-07T23:02:16.365Z,9.53
2019-04-07T23:04:45.243Z,9.47
2019-04-07T23:07:13.792Z,9.51
2019-04-07T23:09:41.814Z,9.45
2019-04-07T23:12:09.439Z,9.41
2019-04-07T23:14:37.941Z,9.41
2019-04-07T23:17:07.899Z,9.38
2019-04-07T23:19:35.658Z,9.36
2019-04-07T23:22:03.638Z,9.29
2019-04-07T23:24:31.227Z,9.23
2019-04-07T23:26:58.921Z,9.20
2019-04-07T23:29:26.697Z,9.34
2019-04-07T23:31:55.565Z,9.28
2019-04-07T23:34:23.892Z,9.15
2019-04-07T23:36:52.090Z,9.10
2019-04-07T23:39:20.015Z,9.17
2019-04-07T23:41:47.903Z,9.20
2019-04-07T23:44:16.087Z,9.01
2019-04-07T23:46:44.016Z,9.03
2019-04-07T23:49:11.967Z,8.87
2019-04-07T23:51:39.520Z,8.94
2019-04-07T23:54:14.318Z,8.86
2019-04-07T23:56:43.727Z,8.84
2019-04-07T23:59:11.549Z,8.76
